sensor_id;sensor_type;location;lat;lon;timestamp;pressure;altitude;pressure_sealevel;temperature;humidity
75290;BME280;63883;48.996;20.804;2022-12-20T00:02:09;98050.56;;;-3.95;86.59
75290;BME280;63883;48.996;20.804;2022-12-20T00:04:34;98049.25;;;-3.88;86.31
75290;BME280;63883;48.996;20.804;2022-12-20T00:07:00;98044.84;;;-3.78;85.82
75290;BME280;63883;48.996;20.804;2022-12-20T00:09:26;98045.31;;;-3.69;85.83
75290;BME280;63883;48.996;20.804;2022-12-20T00:11:52;98032.06;;;-3.68;86.68
75290;BME280;63883;48.996;20.804;2022-12-20T00:14:17;98038.13;;;-3.63;86.00
75290;BME280;63883;48.996;20.804;2022-12-20T00:16:43;98039.91;;;-3.60;85.44
75290;BME280;63883;48.996;20.804;2022-12-20T00:19:10;98036.13;;;-3.53;84.36
75290;BME280;63883;48.996;20.804;2022-12-20T00:21:36;98037.88;;;-3.51;84.86
75290;BME280;63883;48.996;20.804;2022-12-20T00:24:03;98039.59;;;-3.50;84.45
75290;BME280;63883;48.996;20.804;2022-12-20T00:26:31;98034.50;;;-3.53;84.48
75290;BME280;63883;48.996;20.804;2022-12-20T00:28:58;98026.28;;;-3.67;85.29
75290;BME280;63883;48.996;20.804;2022-12-20T00:31:26;98044.97;;;-3.59;85.22
75290;BME280;63883;48.996;20.804;2022-12-20T00:33:54;98045.69;;;-3.77;85.01
75290;BME280;63883;48.996;20.804;2022-12-20T00:36:21;98020.00;;;-3.76;85.63
75290;BME280;63883;48.996;20.804;2022-12-20T00:38:49;98026.38;;;-3.49;84.68
75290;BME280;63883;48.996;20.804;2022-12-20T00:41:17;98022.63;;;-3.25;86.19
75290;BME280;63883;48.996;20.804;2022-12-20T00:43:43;98020.50;;;-2.99;83.36
75290;BME280;63883;48.996;20.804;2022-12-20T00:46:10;98025.09;;;-2.91;83.59
75290;BME280;63883;48.996;20.804;2022-12-20T00:48:36;98027.22;;;-2.98;83.16
75290;BME280;63883;48.996;20.804;2022-12-20T00:51:05;98023.41;;;-3.08;83.39
75290;BME280;63883;48.996;20.804;2022-12-20T00:53:32;98019.31;;;-2.37;82.64
75290;BME280;63883;48.996;20.804;2022-12-20T00:55:58;98019.78;;;-2.08;80.91
75290;BME280;63883;48.996;20.804;2022-12-20T00:58:25;98018.56;;;-1.99;80.58
75290;BME280;63883;48.996;20.804;2022-12-20T01:00:51;98013.50;;;-2.00;81.58
75290;BME280;63883;48.996;20.804;2022-12-20T01:03:17;98009.50;;;-1.97;80.93
75290;BME280;63883;48.996;20.804;2022-12-20T01:05:58;98000.19;;;-1.81;81.24
75290;BME280;63883;48.996;20.804;2022-12-20T01:08:25;98007.66;;;-1.62;80.68
75290;BME280;63883;48.996;20.804;2022-12-20T01:11:03;98000.63;;;-1.51;79.40
75290;BME280;63883;48.996;20.804;2022-12-20T01:13:30;97999.75;;;-1.33;78.98
75290;BME280;63883;48.996;20.804;2022-12-20T01:16:03;97996.53;;;-1.30;78.37
75290;BME280;63883;48.996;20.804;2022-12-20T01:18:29;97986.69;;;-1.26;79.12
75290;BME280;63883;48.996;20.804;2022-12-20T01:21:02;97992.41;;;-1.09;78.68
75290;BME280;63883;48.996;20.804;2022-12-20T01:23:28;97992.16;;;-0.94;78.49
75290;BME280;63883;48.996;20.804;2022-12-20T01:25:57;97993.97;;;-0.69;76.00
75290;BME280;63883;48.996;20.804;2022-12-20T01:28:22;97983.31;;;-0.65;76.53
75290;BME280;63883;48.996;20.804;2022-12-20T01:30:48;97983.97;;;-0.69;75.96
75290;BME280;63883;48.996;20.804;2022-12-20T01:33:13;97982.25;;;-0.70;76.74
75290;BME280;63883;48.996;20.804;2022-12-20T01:35:39;97977.59;;;-0.61;77.23
75290;BME280;63883;48.996;20.804;2022-12-20T01:38:05;97978.59;;;-0.58;77.08
75290;BME280;63883;48.996;20.804;2022-12-20T01:40:31;97980.53;;;-0.51;76.40
75290;BME280;63883;48.996;20.804;2022-12-20T01:42:56;97966.63;;;-0.43;75.75
75290;BME280;63883;48.996;20.804;2022-12-20T01:45:29;97968.53;;;-0.37;75.38
75290;BME280;63883;48.996;20.804;2022-12-20T01:47:56;97956.72;;;-0.40;75.66
75290;BME280;63883;48.996;20.804;2022-12-20T01:50:24;97961.91;;;-0.35;74.99
75290;BME280;63883;48.996;20.804;2022-12-20T01:52:50;97948.97;;;-0.46;76.90
75290;BME280;63883;48.996;20.804;2022-12-20T01:55:23;97946.59;;;-0.65;78.03
75290;BME280;63883;48.996;20.804;2022-12-20T02:00:16;97940.47;;;-0.71;78.03
75290;BME280;63883;48.996;20.804;2022-12-20T02:02:44;97944.34;;;-0.80;78.22
75290;BME280;63883;48.996;20.804;2022-12-20T02:05:11;97944.28;;;-0.81;78.44
75290;BME280;63883;48.996;20.804;2022-12-20T02:07:40;97941.94;;;-0.76;78.05
75290;BME280;63883;48.996;20.804;2022-12-20T02:10:09;97928.75;;;-0.50;77.22
75290;BME280;63883;48.996;20.804;2022-12-20T02:12:41;97925.66;;;-0.43;76.83
75290;BME280;63883;48.996;20.804;2022-12-20T02:15:34;97930.22;;;-0.33;76.08
75290;BME280;63883;48.996;20.804;2022-12-20T02:31:31;97939.53;;;-0.07;75.29
75290;BME280;63883;48.996;20.804;2022-12-20T02:33:59;97933.59;;;-0.10;75.86
75290;BME280;63883;48.996;20.804;2022-12-20T02:36:27;97931.22;;;-0.06;75.25
75290;BME280;63883;48.996;20.804;2022-12-20T02:38:52;97933.28;;;0.05;74.34
75290;BME280;63883;48.996;20.804;2022-12-20T02:41:36;97925.69;;;0.03;74.82
75290;BME280;63883;48.996;20.804;2022-12-20T02:44:10;97926.53;;;0.04;75.02
75290;BME280;63883;48.996;20.804;2022-12-20T02:46:57;97923.31;;;0.06;74.57
75290;BME280;63883;48.996;20.804;2022-12-20T02:49:28;97919.72;;;-0.01;75.50
75290;BME280;63883;48.996;20.804;2022-12-20T02:51:56;97921.97;;;-0.08;76.49
75290;BME280;63883;48.996;20.804;2022-12-20T02:54:25;97922.25;;;-0.01;74.79
75290;BME280;63883;48.996;20.804;2022-12-20T02:57:13;97918.91;;;0.00;75.08
75290;BME280;63883;48.996;20.804;2022-12-20T02:59:58;97918.00;;;-0.02;75.07
75290;BME280;63883;48.996;20.804;2022-12-20T03:02:26;97919.59;;;-0.04;76.40
75290;BME280;63883;48.996;20.804;2022-12-20T03:04:53;97918.69;;;-0.06;76.56
75290;BME280;63883;48.996;20.804;2022-12-20T03:07:20;97911.09;;;-0.07;76.78
75290;BME280;63883;48.996;20.804;2022-12-20T03:09:45;97920.34;;;-0.06;76.28
75290;BME280;63883;48.996;20.804;2022-12-20T03:12:12;97913.59;;;-0.09;76.81
75290;BME280;63883;48.996;20.804;2022-12-20T03:14:39;97913.59;;;-0.09;76.80
75290;BME280;63883;48.996;20.804;2022-12-20T03:17:05;97915.16;;;-0.11;76.97
75290;BME280;63883;48.996;20.804;2022-12-20T03:19:31;97913.59;;;-0.09;76.64
75290;BME280;63883;48.996;20.804;2022-12-20T03:21:57;97916.09;;;-0.09;76.15
75290;BME280;63883;48.996;20.804;2022-12-20T03:24:23;97906.22;;;-0.04;75.72
75290;BME280;63883;48.996;20.804;2022-12-20T03:26:49;97906.38;;;0.00;75.39
75290;BME280;63883;48.996;20.804;2022-12-20T03:29:15;97911.72;;;0.10;74.10
75290;BME280;63883;48.996;20.804;2022-12-20T03:31:41;97905.03;;;0.10;75.15
75290;BME280;63883;48.996;20.804;2022-12-20T03:34:07;97900.28;;;0.18;73.72
75290;BME280;63883;48.996;20.804;2022-12-20T03:36:33;97900.22;;;0.16;73.50
75290;BME280;63883;48.996;20.804;2022-12-20T03:38:59;97898.50;;;0.14;74.51
75290;BME280;63883;48.996;20.804;2022-12-20T03:41:25;97897.03;;;0.20;73.65
75290;BME280;63883;48.996;20.804;2022-12-20T03:43:51;97894.41;;;0.17;74.02
75290;BME280;63883;48.996;20.804;2022-12-20T03:46:17;97894.34;;;0.14;73.51
75290;BME280;63883;48.996;20.804;2022-12-20T03:48:43;97886.84;;;0.16;73.81
75290;BME280;63883;48.996;20.804;2022-12-20T03:51:09;97888.47;;;0.14;73.92
75290;BME280;63883;48.996;20.804;2022-12-20T03:53:35;97887.63;;;0.15;73.12
75290;BME280;63883;48.996;20.804;2022-12-20T03:56:01;97883.66;;;0.20;72.82
75290;BME280;63883;48.996;20.804;2022-12-20T03:58:26;97883.06;;;0.27;72.21
75290;BME280;63883;48.996;20.804;2022-12-20T04:00:52;97876.38;;;0.27;72.27
75290;BME280;63883;48.996;20.804;2022-12-20T04:03:18;97868.88;;;0.29;72.42
75290;BME280;63883;48.996;20.804;2022-12-20T04:05:44;97862.38;;;0.34;71.41
75290;BME280;63883;48.996;20.804;2022-12-20T04:08:09;97842.31;;;0.34;72.97
75290;BME280;63883;48.996;20.804;2022-12-20T04:10:35;97854.81;;;0.32;71.77
75290;BME280;63883;48.996;20.804;2022-12-20T04:13:21;97852.44;;;0.37;70.94
75290;BME280;63883;48.996;20.804;2022-12-20T04:15:46;97846.81;;;0.44;70.02
75290;BME280;63883;48.996;20.804;2022-12-20T04:18:12;97842.81;;;0.49;69.98
75290;BME280;63883;48.996;20.804;2022-12-20T04:20:38;97852.59;;;0.42;69.90
75290;BME280;63883;48.996;20.804;2022-12-20T04:23:03;97855.16;;;0.43;70.33
75290;BME280;63883;48.996;20.804;2022-12-20T04:25:29;97855.91;;;0.41;70.21
75290;BME280;63883;48.996;20.804;2022-12-20T04:27:55;97857.56;;;0.40;70.37
75290;BME280;63883;48.996;20.804;2022-12-20T04:30:21;97850.84;;;0.39;70.99
75290;BME280;63883;48.996;20.804;2022-12-20T04:32:46;97846.72;;;0.41;70.05
75290;BME280;63883;48.996;20.804;2022-12-20T04:35:12;97845.88;;;0.41;70.54
75290;BME280;63883;48.996;20.804;2022-12-20T04:37:38;97846.88;;;0.46;70.29
75290;BME280;63883;48.996;20.804;2022-12-20T04:40:04;97843.38;;;0.41;71.15
75290;BME280;63883;48.996;20.804;2022-12-20T04:42:30;97830.88;;;0.42;70.58
75290;BME280;63883;48.996;20.804;2022-12-20T04:44:57;97828.97;;;0.35;71.12
75290;BME280;63883;48.996;20.804;2022-12-20T04:47:22;97832.56;;;0.18;74.29
75290;BME280;63883;48.996;20.804;2022-12-20T04:49:48;97832.09;;;0.04;73.57
75290;BME280;63883;48.996;20.804;2022-12-20T04:52:13;97828.88;;;0.07;72.03
75290;BME280;63883;48.996;20.804;2022-12-20T04:54:58;97833.06;;;0.08;72.30
75290;BME280;63883;48.996;20.804;2022-12-20T04:57:23;97830.47;;;0.05;72.65
75290;BME280;63883;48.996;20.804;2022-12-20T04:59:49;97827.84;;;0.02;72.55
75290;BME280;63883;48.996;20.804;2022-12-20T05:02:14;97816.00;;;-0.03;71.77
75290;BME280;63883;48.996;20.804;2022-12-20T05:04:40;97820.44;;;0.05;71.37
75290;BME280;63883;48.996;20.804;2022-12-20T05:07:06;97814.88;;;0.13;69.71
75290;BME280;63883;48.996;20.804;2022-12-20T05:09:32;97795.81;;;0.18;68.97
75290;BME280;63883;48.996;20.804;2022-12-20T05:11:57;97820.09;;;0.19;69.23
75290;BME280;63883;48.996;20.804;2022-12-20T05:14:23;97815.88;;;0.18;69.56
75290;BME280;63883;48.996;20.804;2022-12-20T05:16:49;97829.00;;;0.11;70.74
75290;BME280;63883;48.996;20.804;2022-12-20T05:19:14;97819.56;;;0.04;70.66
75290;BME280;63883;48.996;20.804;2022-12-20T05:21:40;97822.94;;;0.05;69.98
75290;BME280;63883;48.996;20.804;2022-12-20T05:24:24;97828.94;;;0.10;69.39
75290;BME280;63883;48.996;20.804;2022-12-20T05:27:08;97830.50;;;0.06;70.73
75290;BME280;63883;48.996;20.804;2022-12-20T05:29:34;97809.16;;;-0.07;72.34
75290;BME280;63883;48.996;20.804;2022-12-20T05:32:00;97806.47;;;-0.13;72.17
75290;BME280;63883;48.996;20.804;2022-12-20T05:34:25;97812.00;;;-0.21;72.03
75290;BME280;63883;48.996;20.804;2022-12-20T05:36:51;97808.75;;;-0.19;71.73
75290;BME280;63883;48.996;20.804;2022-12-20T05:39:17;97823.81;;;-0.19;71.35
75290;BME280;63883;48.996;20.804;2022-12-20T05:41:42;97832.06;;;-0.21;71.01
75290;BME280;63883;48.996;20.804;2022-12-20T05:44:08;97828.59;;;-0.25;71.42
75290;BME280;63883;48.996;20.804;2022-12-20T05:46:34;97825.09;;;-0.30;71.37
75290;BME280;63883;48.996;20.804;2022-12-20T05:49:00;97826.31;;;-0.19;70.66
75290;BME280;63883;48.996;20.804;2022-12-20T05:51:25;97815.38;;;-0.21;70.68
75290;BME280;63883;48.996;20.804;2022-12-20T05:53:51;97798.84;;;-0.16;70.56
75290;BME280;63883;48.996;20.804;2022-12-20T05:56:16;97791.00;;;-0.01;69.54
75290;BME280;63883;48.996;20.804;2022-12-20T05:58:42;97793.44;;;-0.03;69.16
75290;BME280;63883;48.996;20.804;2022-12-20T06:01:09;97809.41;;;-0.01;68.85
75290;BME280;63883;48.996;20.804;2022-12-20T06:03:35;97808.47;;;-0.03;68.55
75290;BME280;63883;48.996;20.804;2022-12-20T06:06:02;97814.63;;;0.06;67.22
75290;BME280;63883;48.996;20.804;2022-12-20T06:08:28;97802.03;;;0.04;68.06
75290;BME280;63883;48.996;20.804;2022-12-20T06:10:53;97804.47;;;0.03;68.37
75290;BME280;63883;48.996;20.804;2022-12-20T06:13:19;97818.31;;;-0.09;68.72
75290;BME280;63883;48.996;20.804;2022-12-20T06:15:45;97821.34;;;-0.17;68.82
75290;BME280;63883;48.996;20.804;2022-12-20T06:18:11;97812.19;;;-0.17;68.49
75290;BME280;63883;48.996;20.804;2022-12-20T06:20:37;97810.25;;;-0.24;68.56
75290;BME280;63883;48.996;20.804;2022-12-20T06:23:03;97806.19;;;-0.20;68.04
75290;BME280;63883;48.996;20.804;2022-12-20T06:25:28;97814.63;;;-0.18;67.29
75290;BME280;63883;48.996;20.804;2022-12-20T06:27:54;97812.19;;;-0.17;67.91
75290;BME280;63883;48.996;20.804;2022-12-20T06:30:20;97817.94;;;-0.19;67.64
75290;BME280;63883;48.996;20.804;2022-12-20T06:32:46;97817.72;;;-0.25;68.35
75290;BME280;63883;48.996;20.804;2022-12-20T06:35:12;97812.28;;;-0.37;68.73
75290;BME280;63883;48.996;20.804;2022-12-20T06:37:40;97818.91;;;-0.40;68.45
75290;BME280;63883;48.996;20.804;2022-12-20T06:40:08;97822.13;;;-0.44;68.98
75290;BME280;63883;48.996;20.804;2022-12-20T06:42:34;97827.69;;;-0.51;69.59
75290;BME280;63883;48.996;20.804;2022-12-20T06:44:59;97809.88;;;-0.58;69.49
75290;BME280;63883;48.996;20.804;2022-12-20T06:47:25;97821.78;;;-0.53;69.47
75290;BME280;63883;48.996;20.804;2022-12-20T06:49:51;97818.28;;;-0.56;69.38
75290;BME280;63883;48.996;20.804;2022-12-20T06:52:16;97820.97;;;-0.52;68.71
75290;BME280;63883;48.996;20.804;2022-12-20T06:54:42;97807.81;;;-0.46;68.47
75290;BME280;63883;48.996;20.804;2022-12-20T06:57:08;97816.72;;;-0.30;67.56
75290;BME280;63883;48.996;20.804;2022-12-20T06:59:33;97817.59;;;-0.28;67.53
75290;BME280;63883;48.996;20.804;2022-12-20T07:01:59;97823.38;;;-0.31;68.28
75290;BME280;63883;48.996;20.804;2022-12-20T07:04:25;97822.34;;;-0.36;68.33
75290;BME280;63883;48.996;20.804;2022-12-20T07:06:51;97811.84;;;-0.26;67.93
75290;BME280;63883;48.996;20.804;2022-12-20T07:09:17;97808.91;;;-0.14;67.81
75290;BME280;63883;48.996;20.804;2022-12-20T07:11:43;97805.25;;;0.00;66.99
75290;BME280;63883;48.996;20.804;2022-12-20T07:14:08;97806.72;;;-0.05;67.68
75290;BME280;63883;48.996;20.804;2022-12-20T07:16:35;97818.06;;;0.09;65.84
75290;BME280;63883;48.996;20.804;2022-12-20T07:19:01;97811.72;;;0.19;65.04
75290;BME280;63883;48.996;20.804;2022-12-20T07:21:26;97816.53;;;0.13;66.05
75290;BME280;63883;48.996;20.804;2022-12-20T07:23:54;97808.19;;;0.14;65.30
75290;BME280;63883;48.996;20.804;2022-12-20T07:26:20;97801.75;;;0.22;64.85
75290;BME280;63883;48.996;20.804;2022-12-20T07:28:45;97794.53;;;0.31;64.61
75290;BME280;63883;48.996;20.804;2022-12-20T07:31:11;97794.88;;;0.42;64.15
75290;BME280;63883;48.996;20.804;2022-12-20T07:33:37;97791.47;;;0.39;64.92
75290;BME280;63883;48.996;20.804;2022-12-20T07:36:09;97792.22;;;0.37;64.96
75290;BME280;63883;48.996;20.804;2022-12-20T07:38:35;97790.72;;;0.42;64.25
75290;BME280;63883;48.996;20.804;2022-12-20T07:41:08;97786.59;;;0.44;64.84
75290;BME280;63883;48.996;20.804;2022-12-20T07:43:34;97775.84;;;0.48;63.72
75290;BME280;63883;48.996;20.804;2022-12-20T07:46:00;97777.56;;;0.49;64.33
75290;BME280;63883;48.996;20.804;2022-12-20T07:48:26;97779.34;;;0.53;64.68
75290;BME280;63883;48.996;20.804;2022-12-20T07:50:56;97769.41;;;0.56;63.47
75290;BME280;63883;48.996;20.804;2022-12-20T07:53:23;97768.56;;;0.56;64.39
75290;BME280;63883;48.996;20.804;2022-12-20T07:55:50;97756.16;;;0.60;64.79
75290;BME280;63883;48.996;20.804;2022-12-20T07:58:17;97764.47;;;0.59;64.20
75290;BME280;63883;48.996;20.804;2022-12-20T08:00:44;97764.59;;;0.62;64.55
75290;BME280;63883;48.996;20.804;2022-12-20T08:03:17;97765.25;;;0.57;64.75
75290;BME280;63883;48.996;20.804;2022-12-20T08:05:49;97749.22;;;0.53;65.14
75290;BME280;63883;48.996;20.804;2022-12-20T08:08:16;97752.53;;;0.52;64.00
75290;BME280;63883;48.996;20.804;2022-12-20T08:10:43;97754.00;;;0.72;63.49
75290;BME280;63883;48.996;20.804;2022-12-20T08:13:09;97740.28;;;0.90;63.98
75290;BME280;63883;48.996;20.804;2022-12-20T08:15:35;97738.16;;;1.03;64.18
75290;BME280;63883;48.996;20.804;2022-12-20T08:18:01;97734.97;;;1.09;62.80
75290;BME280;63883;48.996;20.804;2022-12-20T08:20:27;97736.44;;;1.01;63.72
75290;BME280;63883;48.996;20.804;2022-12-20T08:22:52;97739.03;;;0.75;65.20
75290;BME280;63883;48.996;20.804;2022-12-20T08:25:19;97736.34;;;0.69;64.78
75290;BME280;63883;48.996;20.804;2022-12-20T08:27:46;97731.72;;;0.55;66.07
75290;BME280;63883;48.996;20.804;2022-12-20T08:30:12;97740.38;;;0.64;64.90
75290;BME280;63883;48.996;20.804;2022-12-20T08:32:38;97741.91;;;0.88;64.15
75290;BME280;63883;48.996;20.804;2022-12-20T08:35:05;97730.53;;;1.30;62.74
75290;BME280;63883;48.996;20.804;2022-12-20T08:37:31;97726.69;;;1.74;61.00
75290;BME280;63883;48.996;20.804;2022-12-20T08:39:57;97726.38;;;1.95;59.59
75290;BME280;63883;48.996;20.804;2022-12-20T08:42:22;97724.50;;;2.21;58.76
75290;BME280;63883;48.996;20.804;2022-12-20T08:44:48;97727.91;;;2.59;58.15
75290;BME280;63883;48.996;20.804;2022-12-20T08:47:14;97716.72;;;2.85;56.78
75290;BME280;63883;48.996;20.804;2022-12-20T08:49:40;97723.72;;;2.98;56.05
75290;BME280;63883;48.996;20.804;2022-12-20T08:52:05;97728.19;;;3.11;55.82
75290;BME280;63883;48.996;20.804;2022-12-20T08:54:31;97724.63;;;3.44;54.43
75290;BME280;63883;48.996;20.804;2022-12-20T08:56:57;97723.09;;;3.52;54.33
75290;BME280;63883;48.996;20.804;2022-12-20T08:59:23;97719.31;;;3.74;53.74
75290;BME280;63883;48.996;20.804;2022-12-20T09:01:49;97730.28;;;3.77;52.99
75290;BME280;63883;48.996;20.804;2022-12-20T09:04:15;97734.31;;;3.68;53.54
75290;BME280;63883;48.996;20.804;2022-12-20T09:06:40;97723.53;;;3.30;54.35
75290;BME280;63883;48.996;20.804;2022-12-20T09:09:06;97719.06;;;2.78;56.54
75290;BME280;63883;48.996;20.804;2022-12-20T09:11:32;97715.69;;;2.77;56.55
75290;BME280;63883;48.996;20.804;2022-12-20T09:13:59;97725.06;;;2.83;56.23
75290;BME280;63883;48.996;20.804;2022-12-20T09:16:27;97725.22;;;2.90;55.92
75290;BME280;63883;48.996;20.804;2022-12-20T09:18:55;97724.38;;;2.90;56.57
75290;BME280;63883;48.996;20.804;2022-12-20T09:21:21;97719.38;;;2.91;56.53
75290;BME280;63883;48.996;20.804;2022-12-20T09:23:49;97720.06;;;2.84;56.69
75290;BME280;63883;48.996;20.804;2022-12-20T09:26:17;97711.72;;;2.87;57.34
75290;BME280;63883;48.996;20.804;2022-12-20T09:28:44;97704.22;;;2.90;56.52
75290;BME280;63883;48.996;20.804;2022-12-20T09:31:12;97702.81;;;3.04;55.40
75290;BME280;63883;48.996;20.804;2022-12-20T09:33:38;97715.47;;;3.05;55.87
75290;BME280;63883;48.996;20.804;2022-12-20T09:36:04;97713.72;;;3.01;55.64
75290;BME280;63883;48.996;20.804;2022-12-20T09:38:30;97710.22;;;2.95;56.37
75290;BME280;63883;48.996;20.804;2022-12-20T09:41:04;97707.53;;;2.89;55.23
75290;BME280;63883;48.996;20.804;2022-12-20T09:43:32;97699.25;;;2.93;55.34
75290;BME280;63883;48.996;20.804;2022-12-20T09:45:59;97695.94;;;2.95;55.40
75290;BME280;63883;48.996;20.804;2022-12-20T09:48:32;97689.06;;;2.87;54.86
75290;BME280;63883;48.996;20.804;2022-12-20T09:56:38;97680.38;;;3.14;55.09
75290;BME280;63883;48.996;20.804;2022-12-20T09:59:16;97681.56;;;3.33;54.88
75290;BME280;63883;48.996;20.804;2022-12-20T10:01:45;97680.38;;;3.60;54.04
75290;BME280;63883;48.996;20.804;2022-12-20T10:04:27;97676.47;;;3.78;52.78
75290;BME280;63883;48.996;20.804;2022-12-20T10:09:33;97669.22;;;4.52;51.21
75290;BME280;63883;48.996;20.804;2022-12-20T10:12:18;97660.25;;;4.74;50.40
75290;BME280;63883;48.996;20.804;2022-12-20T10:25:40;97635.00;;;5.53;48.66
75290;BME280;63883;48.996;20.804;2022-12-20T10:28:13;97637.78;;;5.81;47.54
75290;BME280;63883;48.996;20.804;2022-12-20T10:30:40;97637.81;;;5.84;47.24
75290;BME280;63883;48.996;20.804;2022-12-20T10:33:26;97646.53;;;6.15;46.66
75290;BME280;63883;48.996;20.804;2022-12-20T10:35:53;97649.72;;;5.92;46.04
75290;BME280;63883;48.996;20.804;2022-12-20T10:38:19;97642.69;;;5.63;47.17
75290;BME280;63883;48.996;20.804;2022-12-20T10:43:21;97634.88;;;5.39;48.28
75290;BME280;63883;48.996;20.804;2022-12-20T10:45:57;97634.78;;;5.31;48.37
75290;BME280;63883;48.996;20.804;2022-12-20T10:48:32;97618.59;;;5.14;48.60
75290;BME280;63883;48.996;20.804;2022-12-20T10:51:03;97626.19;;;5.14;48.09
75290;BME280;63883;48.996;20.804;2022-12-20T10:56:34;97609.34;;;5.16;49.15
75290;BME280;63883;48.996;20.804;2022-12-20T10:59:02;97612.56;;;5.03;48.95
75290;BME280;63883;48.996;20.804;2022-12-20T11:01:30;97597.34;;;4.97;49.18
75290;BME280;63883;48.996;20.804;2022-12-20T11:04:01;97606.63;;;4.96;49.24
75290;BME280;63883;48.996;20.804;2022-12-20T11:06:43;97601.63;;;5.04;49.02
75290;BME280;63883;48.996;20.804;2022-12-20T11:09:35;97604.13;;;5.01;49.40
75290;BME280;63883;48.996;20.804;2022-12-20T11:12:03;97595.50;;;4.84;49.78
75290;BME280;63883;48.996;20.804;2022-12-20T11:14:31;97592.00;;;4.72;50.11
75290;BME280;63883;48.996;20.804;2022-12-20T11:16:59;97590.25;;;4.68;50.81
75290;BME280;63883;48.996;20.804;2022-12-20T11:30:20;97579.03;;;4.45;51.88
75290;BME280;63883;48.996;20.804;2022-12-20T11:33:18;97580.47;;;4.25;51.27
75290;BME280;63883;48.996;20.804;2022-12-20T11:36:00;97575.25;;;4.14;51.80
75290;BME280;63883;48.996;20.804;2022-12-20T11:38:39;97571.94;;;4.17;51.74
75290;BME280;63883;48.996;20.804;2022-12-20T11:41:13;97562.53;;;4.07;52.06
75290;BME280;63883;48.996;20.804;2022-12-20T11:47:12;97564.91;;;3.98;52.65
75290;BME280;63883;48.996;20.804;2022-12-20T12:00:01;97555.72;;;3.45;54.05
75290;BME280;63883;48.996;20.804;2022-12-20T12:02:34;97537.72;;;3.26;54.62
75290;BME280;63883;48.996;20.804;2022-12-20T12:05:06;97522.59;;;3.26;54.51
75290;BME280;63883;48.996;20.804;2022-12-20T12:07:33;97523.34;;;3.20;55.06
75290;BME280;63883;48.996;20.804;2022-12-20T12:10:14;97524.13;;;3.18;55.35
75290;BME280;63883;48.996;20.804;2022-12-20T12:12:47;97526.47;;;3.05;54.82
75290;BME280;63883;48.996;20.804;2022-12-20T12:15:20;97524.78;;;3.06;54.88
75290;BME280;63883;48.996;20.804;2022-12-20T12:18:18;97521.28;;;2.98;54.40
75290;BME280;63883;48.996;20.804;2022-12-20T12:26:26;97549.66;;;2.86;55.69
75290;BME280;63883;48.996;20.804;2022-12-20T12:29:05;97540.41;;;2.87;55.15
75290;BME280;63883;48.996;20.804;2022-12-20T12:31:38;97541.09;;;2.78;56.22
75290;BME280;63883;48.996;20.804;2022-12-20T12:45:46;97528.44;;;2.75;55.34
75290;BME280;63883;48.996;20.804;2022-12-20T12:48:18;97519.94;;;2.70;55.71
75290;BME280;63883;48.996;20.804;2022-12-20T12:50:49;97531.72;;;2.71;55.55
75290;BME280;63883;48.996;20.804;2022-12-20T12:53:20;97544.41;;;2.75;55.63
75290;BME280;63883;48.996;20.804;2022-12-20T12:55:48;97537.69;;;2.76;56.42
75290;BME280;63883;48.996;20.804;2022-12-20T13:04:07;97542.69;;;2.73;56.36
75290;BME280;63883;48.996;20.804;2022-12-20T13:16:47;97541.81;;;2.71;55.55
75290;BME280;63883;48.996;20.804;2022-12-20T13:19:16;97544.25;;;2.66;55.70
75290;BME280;63883;48.996;20.804;2022-12-20T13:21:43;97535.81;;;2.64;56.15
75290;BME280;63883;48.996;20.804;2022-12-20T13:27:02;97534.88;;;2.59;56.47
75290;BME280;63883;48.996;20.804;2022-12-20T13:29:34;97527.22;;;2.55;55.44
75290;BME280;63883;48.996;20.804;2022-12-20T13:32:01;97527.94;;;2.49;54.83
75290;BME280;63883;48.996;20.804;2022-12-20T13:34:53;97519.41;;;2.41;55.94
75290;BME280;63883;48.996;20.804;2022-12-20T13:37:28;97520.91;;;2.33;55.69
75290;BME280;63883;48.996;20.804;2022-12-20T13:40:20;97512.47;;;2.29;55.25
75290;BME280;63883;48.996;20.804;2022-12-20T13:42:50;97519.06;;;2.24;56.23
75290;BME280;63883;48.996;20.804;2022-12-20T13:45:18;97514.00;;;2.23;55.23
75290;BME280;63883;48.996;20.804;2022-12-20T13:47:47;97503.94;;;2.24;55.63
75290;BME280;63883;48.996;20.804;2022-12-20T13:50:31;97507.00;;;2.08;56.20
75290;BME280;63883;48.996;20.804;2022-12-20T13:53:00;97512.81;;;2.06;55.99
75290;BME280;63883;48.996;20.804;2022-12-20T13:55:32;97506.75;;;1.98;56.43
75290;BME280;63883;48.996;20.804;2022-12-20T13:58:10;97503.19;;;1.88;57.02
75290;BME280;63883;48.996;20.804;2022-12-20T14:00:37;97501.53;;;1.88;57.44
75290;BME280;63883;48.996;20.804;2022-12-20T14:03:03;97511.50;;;1.84;56.99
75290;BME280;63883;48.996;20.804;2022-12-20T14:05:36;97499.34;;;1.66;58.56
75290;BME280;63883;48.996;20.804;2022-12-20T14:08:06;97495.34;;;1.73;57.79
75290;BME280;63883;48.996;20.804;2022-12-20T14:10:34;97505.19;;;1.64;57.43
75290;BME280;63883;48.996;20.804;2022-12-20T14:13:00;97499.19;;;1.58;58.51
75290;BME280;63883;48.996;20.804;2022-12-20T14:15:31;97493.97;;;1.49;58.53
75290;BME280;63883;48.996;20.804;2022-12-20T14:18:04;97482.13;;;1.45;58.70
75290;BME280;63883;48.996;20.804;2022-12-20T14:20:35;97480.50;;;1.47;59.00
75290;BME280;63883;48.996;20.804;2022-12-20T14:23:09;97475.41;;;1.44;58.54
75290;BME280;63883;48.996;20.804;2022-12-20T14:25:42;97482.44;;;1.58;58.65
75290;BME280;63883;48.996;20.804;2022-12-20T14:30:51;97473.75;;;1.45;58.27
75290;BME280;63883;48.996;20.804;2022-12-20T14:33:30;97476.00;;;1.33;58.92
75290;BME280;63883;48.996;20.804;2022-12-20T14:36:16;97486.63;;;1.23;58.76
75290;BME280;63883;48.996;20.804;2022-12-20T14:38:48;97478.22;;;1.21;59.41
75290;BME280;63883;48.996;20.804;2022-12-20T14:41:32;97482.25;;;1.14;59.66
75290;BME280;63883;48.996;20.804;2022-12-20T14:46:29;97482.84;;;1.04;59.46
75290;BME280;63883;48.996;20.804;2022-12-20T14:51:47;97485.88;;;0.91;60.60
75290;BME280;63883;48.996;20.804;2022-12-20T14:54:19;97470.66;;;0.85;61.24
75290;BME280;63883;48.996;20.804;2022-12-20T14:56:47;97477.19;;;0.79;60.88